Time;durP1;ratioP1;P1;durP2;ratioP2;P2;SDS_P1;SDS_P2;PMS_P1;PMS_P2;Temp;Humidity;BMP_temperature;BMP_pressure;BME280_temperature;BME280_humidity;BME280_pressure;Samples;Min_cycle;Max_cycle;Signal;HPM_P1;HPM_P2
2023/04/19 00:01:29;;;;;;;14.18;6.55;;;8.60;99.90;;;;;;5072863;28;20127;-48
2023/04/19 00:03:55;;;;;;;;;;;8.60;99.90;;;;;;5073645;28;20036;-48
2023/04/19 00:06:23;;;;;;;13.50;7.10;;;8.60;99.90;;;;;;5073143;28;19920;-46
2023/04/19 00:08:50;;;;;;;9.35;6.30;;;8.60;99.90;;;;;;5071608;28;20051;-47
2023/04/19 00:11:17;;;;;;;10.65;6.85;;;8.60;99.90;;;;;;5081447;28;20446;-47
2023/04/19 00:13:44;;;;;;;14.55;6.78;;;8.60;99.90;;;;;;5073569;28;20098;-47
2023/04/19 00:16:11;;;;;;;10.60;6.35;;;8.50;99.90;;;;;;5073196;28;20090;-47
2023/04/19 00:18:37;;;;;;;11.35;6.55;;;8.50;99.90;;;;;;5073389;28;20048;-48
2023/04/19 00:21:04;;;;;;;12.63;6.93;;;8.60;99.90;;;;;;5089886;28;20583;-47
2023/04/19 00:23:31;;;;;;;12.38;7.22;;;8.60;99.90;;;;;;5073306;28;20146;-47
2023/04/19 00:25:58;;;;;;;11.45;7.50;;;8.60;99.90;;;;;;5073989;28;20087;-47
2023/04/19 00:28:25;;;;;;;13.15;7.10;;;8.50;99.90;;;;;;5080034;28;20496;-51
2023/04/19 00:30:51;;;;;;;12.18;7.18;;;8.50;99.90;;;;;;5088144;28;20047;-47
2023/04/19 00:33:18;;;;;;;12.35;6.95;;;8.60;99.90;;;;;;5093209;28;20078;-49
2023/04/19 00:35:45;;;;;;;13.18;6.95;;;8.60;99.90;;;;;;5091890;28;20040;-48
2023/04/19 00:38:12;;;;;;;11.93;7.05;;;8.60;99.90;;;;;;5082951;28;20066;-48
2023/04/19 00:40:39;;;;;;;17.05;7.43;;;8.60;99.90;;;;;;5090870;28;20059;-47
2023/04/19 00:43:06;;;;;;;10.43;6.70;;;8.60;99.90;;;;;;5091249;28;20048;-47
2023/04/19 00:45:35;;;;;;;12.85;6.03;;;8.60;99.90;;;;;;5084850;28;20045;-48
2023/04/19 00:48:02;;;;;;;10.70;5.85;;;8.60;99.90;;;;;;5080983;28;20044;-47
2023/04/19 00:50:29;;;;;;;9.25;5.30;;;8.50;99.90;;;;;;5092157;28;20075;-48
2023/04/19 00:52:56;;;;;;;11.40;5.40;;;8.50;99.90;;;;;;5089986;28;20044;-47
2023/04/19 00:55:24;;;;;;;8.32;4.78;;;8.50;99.90;;;;;;5087397;28;20529;-48
2023/04/19 00:57:51;;;;;;;8.05;4.25;;;8.60;99.90;;;;;;5079743;28;20053;-47
2023/04/19 01:00:18;;;;;;;12.18;5.10;;;8.60;99.90;;;;;;5092477;28;20044;-47
2023/04/19 01:02:46;;;;;;;7.95;4.00;;;8.60;99.90;;;;;;5090440;28;20040;-48
2023/04/19 01:05:13;;;;;;;6.10;3.72;;;8.60;99.90;;;;;;5082878;28;20048;-47
2023/04/19 01:07:42;;;;;;;7.05;3.83;;;8.50;99.90;;;;;;5081936;28;20058;-48
2023/04/19 01:10:09;;;;;;;6.55;4.28;;;8.50;99.90;;;;;;5090928;28;20470;-48
2023/04/19 01:12:35;;;;;;;8.40;3.95;;;8.50;99.90;;;;;;5086307;28;20048;-47
2023/04/19 01:15:03;;;;;;;8.80;5.85;;;8.50;99.90;;;;;;5092382;28;20070;-48
2023/04/19 01:17:31;;;;;;;10.48;6.07;;;8.50;99.90;;;;;;5091554;28;20404;-48
2023/04/19 01:20:00;;;;;;;8.80;5.90;;;8.60;99.90;;;;;;5091112;28;20097;-47
2023/04/19 01:22:27;;;;;;;12.27;6.80;;;8.50;99.90;;;;;;5085107;28;20048;-50
2023/04/19 01:24:53;;;;;;;18.15;6.88;;;8.60;99.90;;;;;;5072260;28;20090;-47
2023/04/19 01:27:20;;;;;;;11.07;6.75;;;8.60;99.90;;;;;;5069918;28;20540;-48
2023/04/19 01:29:47;;;;;;;12.20;7.25;;;8.60;99.90;;;;;;5070681;28;20560;-49
2023/04/19 01:32:14;;;;;;;13.73;7.32;;;8.60;99.90;;;;;;5079754;28;20394;-48
2023/04/19 01:34:41;;;;;;;14.75;7.53;;;8.60;99.90;;;;;;5072013;28;20075;-48
2023/04/19 01:37:08;;;;;;;12.73;7.28;;;8.60;99.90;;;;;;5070555;28;20044;-47
2023/04/19 01:39:35;;;;;;;11.98;7.15;;;8.50;99.90;;;;;;5070571;28;20114;-48
2023/04/19 01:42:03;;;;;;;10.63;7.80;;;8.50;99.90;;;;;;5082101;28;20032;-47
2023/04/19 01:44:29;;;;;;;13.18;7.90;;;8.50;99.90;;;;;;5077174;28;20048;-47
2023/04/19 01:46:58;;;;;;;16.55;7.88;;;8.50;99.90;;;;;;5071986;28;20041;-51
2023/04/19 01:49:25;;;;;;;14.65;8.25;;;8.50;99.90;;;;;;5084346;28;20500;-47
2023/04/19 01:51:52;;;;;;;14.02;8.15;;;8.50;99.90;;;;;;5092218;28;20404;-47
2023/04/19 01:54:19;;;;;;;15.00;8.32;;;8.50;99.90;;;;;;5091482;28;20047;-47
2023/04/19 01:56:48;;;;;;;14.13;7.65;;;8.50;99.90;;;;;;5086268;28;20389;-47
2023/04/19 01:59:15;;;;;;;13.85;7.93;;;8.50;99.90;;;;;;5069871;28;20106;-47
2023/04/19 02:01:42;;;;;;;14.15;8.57;;;8.50;99.90;;;;;;5070091;28;20059;-48
2023/04/19 02:04:09;;;;;;;13.48;7.75;;;8.50;99.90;;;;;;5071698;28;20040;-50
2023/04/19 02:06:35;;;;;;;14.80;8.90;;;8.50;99.90;;;;;;5074283;28;20048;-47
2023/04/19 02:09:03;;;;;;;;;;;8.50;99.90;;;;;;5072823;28;20040;-48
2023/04/19 02:11:30;;;;;;;14.13;7.68;;;8.50;99.90;;;;;;5090300;28;20010;-50
2023/04/19 02:13:57;;;;;;;10.43;6.25;;;8.50;99.90;;;;;;5090277;28;20104;-47
2023/04/19 02:16:26;;;;;;;13.57;8.15;;;8.50;99.90;;;;;;5086018;28;20041;-47
2023/04/19 02:18:52;;;;;;;14.00;8.77;;;8.40;99.90;;;;;;5072822;28;20086;-48
2023/04/19 02:21:19;;;;;;;14.68;8.38;;;8.40;99.90;;;;;;5069929;28;20055;-47
2023/04/19 02:23:46;;;;;;;15.80;8.60;;;8.40;99.90;;;;;;5070150;28;20056;-48
2023/04/19 02:26:13;;;;;;;15.35;8.88;;;8.40;99.90;;;;;;5074630;28;20052;-49
2023/04/19 02:28:42;;;;;;;13.70;8.82;;;8.40;99.90;;;;;;5069402;28;20036;-47
2023/04/19 02:31:08;;;;;;;16.25;8.63;;;8.50;99.90;;;;;;5070921;28;20036;-47
2023/04/19 02:33:35;;;;;;;17.35;8.82;;;8.40;99.90;;;;;;5071463;28;20040;-49
2023/04/19 02:36:02;;;;;;;13.07;8.57;;;8.40;99.90;;;;;;5080506;28;20040;-47
2023/04/19 02:38:29;;;;;;;13.68;8.60;;;8.40;99.90;;;;;;5089749;28;20458;-50
2023/04/19 02:40:56;;;;;;;16.83;8.30;;;8.40;99.90;;;;;;5089550;28;20462;-48
2023/04/19 02:43:23;;;;;;;14.82;8.10;;;8.40;99.90;;;;;;5089234;28;20040;-48
2023/04/19 02:45:50;;;;;;;14.00;8.70;;;8.50;99.90;;;;;;5078562;28;20044;-47
2023/04/19 02:48:16;;;;;;;18.90;8.93;;;8.50;99.90;;;;;;5069451;28;20052;-49
2023/04/19 02:50:43;;;;;;;13.90;9.07;;;8.50;99.90;;;;;;5071195;28;20546;-48
2023/04/19 02:53:10;;;;;;;17.42;9.02;;;8.50;99.90;;;;;;5062772;28;20067;-47
2023/04/19 02:55:37;;;;;;;;;;;8.50;99.90;;;;;;5081858;28;20032;-47
2023/04/19 02:58:10;;;;;;;14.00;9.38;;;8.50;99.90;;;;;;5084170;28;19920;-46
2023/04/19 03:00:43;;;;;;;14.55;8.55;;;8.40;99.90;;;;;;5076618;28;20046;-47
2023/04/19 03:03:14;;;;;;;16.58;8.48;;;8.50;99.90;;;;;;5088921;28;20052;-47
2023/04/19 03:05:41;;;;;;;14.98;9.20;;;8.40;99.90;;;;;;5085484;28;20049;-48
2023/04/19 03:08:09;;;;;;;15.93;9.35;;;8.40;99.90;;;;;;5086964;28;20044;-47
2023/04/19 03:10:36;;;;;;;15.48;8.98;;;8.40;99.90;;;;;;5088707;28;20511;-47
2023/04/19 03:13:03;;;;;;;16.25;9.32;;;8.40;99.90;;;;;;5090179;28;20040;-49
2023/04/19 03:15:29;;;;;;;18.33;9.63;;;8.40;99.90;;;;;;5106127;22;20036;-50
2023/04/19 03:17:56;;;;;;;17.33;9.80;;;8.40;99.90;;;;;;5081823;28;20411;-49
2023/04/19 03:20:25;;;;;;;20.85;10.40;;;8.40;99.90;;;;;;5079610;28;20873;-51
2023/04/19 03:22:51;;;;;;;19.88;9.98;;;8.40;99.90;;;;;;5072634;28;20047;-49
2023/04/19 03:25:19;;;;;;;18.58;10.00;;;8.40;99.90;;;;;;5076593;28;20073;-49
2023/04/19 03:27:52;;;;;;;21.73;10.43;;;8.40;99.90;;;;;;5092089;28;20035;-50
2023/04/19 03:30:34;;;;;;;21.85;10.82;;;8.40;99.90;;;;;;5094862;28;20043;-49
2023/04/19 03:33:01;;;;;;;19.52;11.02;;;8.40;99.90;;;;;;5096515;28;20522;-50
2023/04/19 03:35:29;;;;;;;17.63;10.07;;;8.40;99.90;;;;;;5092362;28;20126;-49
2023/04/19 03:38:01;;;;;;;19.80;11.63;;;8.40;99.90;;;;;;5084817;28;20455;-50
2023/04/19 03:40:29;;;;;;;22.35;10.77;;;8.40;99.90;;;;;;5111358;28;20108;-49
2023/04/19 03:42:56;;;;;;;20.33;11.50;;;8.40;99.90;;;;;;5076894;28;20389;-49
2023/04/19 03:45:27;;;;;;;21.02;11.25;;;8.40;99.90;;;;;;5091611;28;20526;-49
2023/04/19 03:47:54;;;;;;;21.95;12.35;;;8.40;99.90;;;;;;5109682;28;20048;-50
2023/04/19 03:50:22;;;;;;;23.48;11.98;;;8.50;99.90;;;;;;5083296;28;20052;-50
2023/04/19 03:52:51;;;;;;;18.70;11.15;;;8.50;99.90;;;;;;5086351;28;20028;-49
2023/04/19 03:55:18;;;;;;;18.92;11.25;;;8.50;99.90;;;;;;5104895;28;20039;-49
2023/04/19 03:57:45;;;;;;;22.25;11.73;;;8.40;99.90;;;;;;5107872;28;20039;-49
2023/04/19 04:00:20;;;;;;;24.95;12.15;;;8.40;99.90;;;;;;5084927;28;20044;-49
2023/04/19 04:02:53;;;;;;;19.98;11.70;;;8.50;99.90;;;;;;5104104;28;20587;-50
2023/04/19 04:05:21;;;;;;;21.10;11.75;;;8.40;99.90;;;;;;5083734;28;20454;-49
2023/04/19 04:07:48;;;;;;;25.45;12.63;;;8.40;99.90;;;;;;5088412;28;20047;-49
2023/04/19 04:10:15;;;;;;;20.65;12.07;;;8.30;99.90;;;;;;5085064;28;20093;-49
2023/04/19 04:12:42;;;;;;;22.70;12.70;;;8.30;99.90;;;;;;5086722;28;20040;-49
2023/04/19 04:15:13;;;;;;;25.08;12.18;;;8.30;99.90;;;;;;5085292;28;20599;-49
2023/04/19 04:17:46;;;;;;;21.08;12.00;;;8.30;99.90;;;;;;5087123;28;20039;-49
2023/04/19 04:20:13;;;;;;;23.55;12.52;;;8.30;99.90;;;;;;5089307;28;20036;-49
2023/04/19 04:22:41;;;;;;;22.17;12.48;;;8.40;99.90;;;;;;5076282;28;20048;-50
2023/04/19 04:25:11;;;;;;;25.38;12.68;;;8.40;99.90;;;;;;5089151;28;20040;-49
2023/04/19 04:27:38;;;;;;;24.00;13.00;;;8.40;99.90;;;;;;5084543;28;20059;-50
2023/04/19 04:30:08;;;;;;;24.35;13.65;;;8.40;99.90;;;;;;5082204;28;20068;-49
2023/04/19 04:32:37;;;;;;;24.40;12.93;;;8.30;99.90;;;;;;5088096;28;20046;-49
2023/04/19 04:35:05;;;;;;;21.08;12.32;;;8.30;99.90;;;;;;5094850;28;20136;-49
2023/04/19 04:37:40;;;;;;;28.33;13.95;;;8.30;99.90;;;;;;5094283;28;20085;-49
2023/04/19 04:40:07;;;;;;;23.95;13.45;;;8.30;99.90;;;;;;5105136;28;20039;-50
2023/04/19 04:42:36;;;;;;;23.38;12.85;;;8.40;99.90;;;;;;5080202;28;20139;-49
2023/04/19 04:45:04;;;;;;;23.88;13.48;;;8.30;99.90;;;;;;5080455;28;20557;-50
2023/04/19 04:47:33;;;;;;;26.67;14.18;;;8.30;99.90;;;;;;5086249;28;20040;-49
2023/04/19 04:50:04;;;;;;;28.38;13.98;;;8.30;99.90;;;;;;5082655;28;20496;-50
2023/04/19 04:52:31;;;;;;;28.40;15.63;;;8.30;99.90;;;;;;5095169;28;20047;-51
2023/04/19 04:55:08;;;;;;;29.98;15.85;;;8.20;99.90;;;;;;5087052;28;20092;-49
2023/04/19 04:57:40;;;;;;;31.60;15.68;;;8.20;99.90;;;;;;5095176;28;20132;-50
2023/04/19 05:00:12;;;;;;;30.13;15.43;;;8.20;99.90;;;;;;5093501;28;20517;-53
2023/04/19 05:02:48;;;;;;;35.30;17.08;;;8.20;99.90;;;;;;5074519;28;20452;-50
2023/04/19 05:05:15;;;;;;;30.05;15.77;;;8.20;99.90;;;;;;5073280;28;20074;-49
2023/04/19 05:07:41;;;;;;;31.70;16.75;;;8.30;99.90;;;;;;5092219;28;20112;-49
2023/04/19 05:10:09;;;;;;;32.08;15.25;;;8.30;99.90;;;;;;5092758;28;20081;-49
2023/04/19 05:12:42;;;;;;;30.52;15.35;;;8.30;99.90;;;;;;5094100;28;20071;-49
2023/04/19 05:15:10;;;;;;;32.20;16.55;;;8.30;99.90;;;;;;5091907;28;20571;-49
2023/04/19 05:17:41;;;;;;;29.48;16.15;;;8.30;99.90;;;;;;5093424;28;20055;-50
2023/04/19 05:20:09;;;;;;;33.17;16.08;;;8.30;99.90;;;;;;5088178;28;20048;-50
2023/04/19 05:22:37;;;;;;;31.70;16.05;;;8.30;99.90;;;;;;5080943;28;20051;-50
2023/04/19 05:25:09;;;;;;;31.65;17.05;;;8.30;99.90;;;;;;5090807;28;20086;-49
2023/04/19 05:27:37;;;;;;;33.70;17.00;;;8.30;99.90;;;;;;5085778;28;20500;-49
2023/04/19 05:30:05;;;;;;;34.05;17.45;;;8.40;99.90;;;;;;5090155;28;20049;-49
2023/04/19 05:32:34;;;;;;;35.33;18.02;;;8.40;99.90;;;;;;5093212;28;20054;-49
2023/04/19 05:35:03;;;;;;;32.33;16.35;;;8.40;99.90;;;;;;5092688;28;20044;-50
2023/04/19 05:37:31;;;;;;;33.17;16.88;;;8.40;99.90;;;;;;5094368;28;20051;-49
2023/04/19 05:39:58;;;;;;;41.55;18.75;;;8.40;99.90;;;;;;5088340;28;20035;-50
2023/04/19 05:42:24;;;;;;;32.67;16.13;;;8.50;99.90;;;;;;5087957;28;20092;-49
2023/04/19 05:44:51;;;;;;;38.72;18.65;;;8.50;99.90;;;;;;5071191;28;20040;-49
2023/04/19 05:47:19;;;;;;;34.13;16.60;;;8.50;99.90;;;;;;5072730;28;20465;-49
2023/04/19 05:50:05;;;;;;;29.23;15.18;;;8.60;99.90;;;;;;5106182;28;20057;-51
2023/04/19 05:52:39;;;;;;;33.30;17.25;;;8.60;99.90;;;;;;5093518;28;20044;-49
2023/04/19 05:55:07;;;;;;;33.25;16.40;;;8.50;99.90;;;;;;5093567;28;20085;-49
2023/04/19 05:57:39;;;;;;;29.30;15.20;;;8.50;99.90;;;;;;5092680;28;20143;-48
2023/04/19 06:00:08;;;;;;;30.30;16.35;;;8.50;99.90;;;;;;5093102;28;20043;-48
2023/04/19 06:02:58;;;;;;;31.02;15.98;;;8.40;99.90;;;;;;5089184;28;20447;-49
2023/04/19 06:05:25;;;;;;;;;;;8.40;99.90;;;;;;5094299;28;20043;-48
2023/04/19 06:07:55;;;;;;;29.98;15.50;;;8.40;99.90;;;;;;5110988;28;19931;-49
2023/04/19 06:10:28;;;;;;;31.33;15.63;;;8.40;99.90;;;;;;5093508;28;20049;-49
2023/04/19 06:13:15;;;;;;;35.13;17.35;;;8.40;99.90;;;;;;5107171;28;20499;-49
2023/04/19 06:15:42;;;;;;;31.13;16.50;;;8.40;99.90;;;;;;5093082;28;20119;-49
2023/04/19 06:18:09;;;;;;;30.10;15.15;;;8.40;99.90;;;;;;5093418;28;20044;-49
2023/04/19 06:20:45;;;;;;;32.70;16.42;;;8.40;99.90;;;;;;5106946;28;20035;-49
2023/04/19 06:23:13;;;;;;;28.17;15.40;;;8.50;99.90;;;;;;5111777;28;20446;-50
2023/04/19 06:25:40;;;;;;;27.95;15.32;;;8.50;99.90;;;;;;5091959;28;20447;-48
2023/04/19 06:28:07;;;;;;;29.98;15.32;;;8.50;99.90;;;;;;5091220;28;20055;-49
2023/04/19 06:30:34;;;;;;;28.02;13.57;;;8.60;99.90;;;;;;5101722;28;20092;-49
2023/04/19 06:33:01;;;;;;;23.25;12.27;;;8.50;99.90;;;;;;5111605;28;20492;-50
2023/04/19 06:35:28;;;;;;;27.83;13.90;;;8.60;99.90;;;;;;5111272;28;20039;-48
2023/04/19 06:37:54;;;;;;;26.45;13.95;;;8.70;99.90;;;;;;5110385;28;20069;-49
2023/04/19 06:40:21;;;;;;;28.67;13.23;;;8.60;99.90;;;;;;5111033;28;20447;-49
2023/04/19 06:42:48;;;;;;;27.48;13.48;;;8.70;99.90;;;;;;5110611;28;20491;-48
2023/04/19 06:45:15;;;;;;;29.35;13.25;;;8.60;99.90;;;;;;5111653;28;20293;-48
2023/04/19 06:47:42;;;;;;;26.60;13.40;;;8.60;99.90;;;;;;5107653;28;20094;-49
2023/04/19 06:50:09;;;;;;;24.05;12.98;;;8.60;99.90;;;;;;5110924;28;20058;-48
2023/04/19 06:52:37;;;;;;;23.60;11.93;;;8.60;99.90;;;;;;5111100;28;20069;-50
2023/04/19 06:55:08;;;;;;;23.23;12.20;;;8.60;99.90;;;;;;5110277;28;20063;-48
2023/04/19 06:57:34;;;;;;;27.02;12.23;;;8.60;99.90;;;;;;5111187;28;20135;-48
2023/04/19 07:00:03;;;;;;;27.60;12.45;;;8.60;99.90;;;;;;5110917;28;20140;-48
2023/04/19 07:02:29;;;;;;;24.17;11.68;;;8.50;99.90;;;;;;5106869;28;20076;-48
2023/04/19 07:04:56;;;;;;;24.50;11.50;;;8.50;99.90;;;;;;5102833;28;20055;-49
2023/04/19 07:07:23;;;;;;;21.10;11.55;;;8.50;99.90;;;;;;5097214;28;20469;-49
2023/04/19 07:09:50;;;;;;;18.08;10.32;;;8.60;99.90;;;;;;5111741;28;20039;-49
2023/04/19 07:12:16;;;;;;;20.85;10.65;;;8.50;99.90;;;;;;5115210;28;20039;-48
2023/04/19 07:14:43;;;;;;;22.48;10.90;;;8.50;99.90;;;;;;5114385;28;20101;-48
2023/04/19 07:17:10;;;;;;;21.77;10.93;;;8.50;99.90;;;;;;5111379;28;20496;-49
2023/04/19 07:19:36;;;;;;;19.27;9.88;;;8.50;99.90;;;;;;5111071;28;20093;-49
2023/04/19 07:22:05;;;;;;;19.17;10.05;;;8.60;99.90;;;;;;5115241;28;20472;-49
2023/04/19 07:24:31;;;;;;;21.70;11.30;;;8.60;99.90;;;;;;5115062;28;20043;-49
2023/04/19 07:26:58;;;;;;;20.23;9.52;;;8.60;99.90;;;;;;5109158;28;20068;-48
2023/04/19 07:29:25;;;;;;;19.42;10.05;;;8.70;99.90;;;;;;5109338;28;20070;-49
2023/04/19 07:31:54;;;;;;;19.45;8.80;;;8.70;99.90;;;;;;5114986;28;20036;-49
2023/04/19 07:34:21;;;;;;;17.50;9.88;;;8.70;99.90;;;;;;5114668;28;20055;-50
2023/04/19 07:36:47;;;;;;;17.48;8.93;;;8.70;99.90;;;;;;5099905;28;20081;-50
2023/04/19 07:39:14;;;;;;;16.38;8.82;;;8.70;99.90;;;;;;5095939;28;20035;-49
2023/04/19 07:41:41;;;;;;;16.50;9.55;;;8.70;99.90;;;;;;5113490;28;20044;-48
2023/04/19 07:44:07;;;;;;;16.88;8.55;;;8.70;99.90;;;;;;5113709;28;20044;-49
2023/04/19 07:46:34;;;;;;;16.63;8.95;;;8.80;99.90;;;;;;5114026;28;20147;-48
2023/04/19 07:49:01;;;;;;;11.32;6.35;;;8.80;99.90;;;;;;5095448;28;20484;-49
2023/04/19 07:51:28;;;;;;;16.50;7.57;;;8.90;99.90;;;;;;5105487;28;20721;-49
2023/04/19 07:53:54;;;;;;;18.38;8.90;;;9.00;99.90;;;;;;5114502;28;20066;-49
2023/04/19 07:56:21;;;;;;;15.63;8.73;;;9.00;99.90;;;;;;5096048;28;20470;-50
2023/04/19 07:58:48;;;;;;;18.38;9.63;;;8.90;99.90;;;;;;5114252;28;20036;-49
2023/04/19 08:01:34;;;;;;;18.02;8.90;;;9.00;99.90;;;;;;5105315;28;20118;-49
2023/04/19 08:04:01;;;;;;;16.08;8.65;;;9.00;99.90;;;;;;5114383;28;20047;-49
2023/04/19 08:06:32;;;;;;;;;;;9.00;99.90;;;;;;5114503;28;20047;-49
2023/04/19 08:08:58;;;;;;;18.85;10.10;;;9.00;99.90;;;;;;5113395;28;19966;-49
2023/04/19 08:11:25;;;;;;;12.23;6.70;;;9.00;99.90;;;;;;5103911;28;20040;-49
2023/04/19 08:13:52;;;;;;;18.02;9.45;;;9.00;99.90;;;;;;5113745;28;20036;-49
2023/04/19 08:16:35;;;;;;;18.30;9.82;;;9.00;99.90;;;;;;5108370;28;20110;-48
2023/04/19 08:19:04;;;;;;;21.13;9.73;;;8.90;99.90;;;;;;5113621;28;20062;-49
2023/04/19 08:21:31;;;;;;;21.40;9.93;;;8.90;99.90;;;;;;5113178;28;20168;-50
2023/04/19 08:24:07;;;;;;;18.60;10.15;;;9.00;99.90;;;;;;5104456;28;20052;-49
2023/04/19 08:26:34;;;;;;;22.75;10.05;;;9.00;99.90;;;;;;5106668;28;20032;-48
2023/04/19 08:29:00;;;;;;;20.58;10.10;;;9.00;99.90;;;;;;5113416;28;20549;-50
2023/04/19 08:31:27;;;;;;;17.92;9.35;;;9.10;99.90;;;;;;5113462;28;20039;-48
2023/04/19 08:33:54;;;;;;;17.45;9.80;;;9.10;99.90;;;;;;5113969;28;20055;-49
2023/04/19 08:36:21;;;;;;;18.75;10.00;;;9.10;99.90;;;;;;5102498;28;20040;-50
2023/04/19 08:39:05;;;;;;;19.10;9.93;;;9.10;99.90;;;;;;5094283;28;20048;-48
2023/04/19 08:41:48;;;;;;;19.55;10.10;;;9.10;99.90;;;;;;5093477;28;20457;-49
2023/04/19 08:44:30;;;;;;;19.00;9.52;;;9.10;99.90;;;;;;5098715;28;20043;-48
2023/04/19 08:47:03;;;;;;;15.55;9.27;;;9.30;99.90;;;;;;5113296;28;20096;-49
2023/04/19 08:49:33;;;;;;;19.45;10.40;;;9.30;99.90;;;;;;5111834;28;20058;-48
2023/04/19 08:52:01;;;;;;;18.60;9.85;;;9.40;99.90;;;;;;5108635;28;20089;-49
2023/04/19 08:54:30;;;;;;;;;;;9.40;99.90;;;;;;5104522;28;20536;-49
2023/04/19 08:56:59;;;;;;;16.40;9.52;;;9.50;99.90;;;;;;5102152;28;19927;-50
2023/04/19 08:59:26;;;;;;;20.08;10.13;;;9.50;99.90;;;;;;5103869;28;20460;-49
2023/04/19 09:01:55;;;;;;;18.30;9.10;;;9.50;99.90;;;;;;5113038;28;20040;-49
2023/04/19 09:04:22;;;;;;;15.68;8.85;;;9.50;99.90;;;;;;5100542;28;20048;-49
2023/04/19 09:07:02;;;;;;;15.70;9.30;;;9.60;99.90;;;;;;5101729;28;20040;-48
2023/04/19 09:09:29;;;;;;;18.52;9.73;;;9.60;99.90;;;;;;5112703;28;20088;-49
2023/04/19 09:11:59;;;;;;;17.42;9.50;;;9.60;99.90;;;;;;5112668;28;20513;-48
2023/04/19 09:17:28;;;;;;;17.48;8.98;;;9.70;99.90;;;;;;5041580;28;20056;-47
2023/04/19 09:19:55;;;;;;;16.55;9.13;;;9.80;99.90;;;;;;5034416;28;20513;-46
2023/04/19 09:22:22;;;;;;;17.05;9.15;;;9.80;99.90;;;;;;5039047;28;20037;-48
2023/04/19 09:24:50;;;;;;;14.95;8.55;;;9.80;99.90;;;;;;5035859;28;20095;-48
2023/04/19 09:27:29;;;;;;;18.67;9.20;;;9.80;99.90;;;;;;5031243;28;20061;-46
2023/04/19 09:29:58;;;;;;;15.55;9.07;;;9.90;99.90;;;;;;5032010;28;20049;-48
2023/04/19 09:32:25;;;;;;;14.15;8.25;;;9.90;99.90;;;;;;5032518;28;20406;-48
2023/04/19 09:34:54;;;;;;;14.80;7.78;;;10.00;99.90;;;;;;5031927;28;20033;-49
2023/04/19 09:37:22;;;;;;;15.07;8.40;;;10.10;99.90;;;;;;5032655;28;20049;-48
2023/04/19 09:40:23;;;;;;;14.63;8.32;;;10.20;99.90;;;;;;5030976;28;20055;-47
2023/04/19 09:42:49;;;;;;;13.82;8.52;;;10.30;99.90;;;;;;5032021;28;20479;-49
2023/04/19 09:45:19;;;;;;;13.68;8.25;;;10.30;99.90;;;;;;5040333;28;20038;-48
2023/04/19 09:48:06;;;;;;;13.18;7.93;;;10.30;99.90;;;;;;5032060;28;20413;-49
2023/04/19 09:50:34;;;;;;;15.10;8.57;;;10.30;99.90;;;;;;5030254;28;20502;-48
2023/04/19 09:53:20;;;;;;;15.18;8.02;;;10.50;99.90;;;;;;5037015;28;20494;-48
2023/04/19 09:55:47;;;;;;;15.90;9.13;;;10.20;99.90;;;;;;5031735;28;20041;-48
2023/04/19 09:58:27;;;;;;;14.82;8.65;;;10.20;99.90;;;;;;5031144;28;20041;-48
2023/04/19 10:01:04;;;;;;;16.63;9.85;;;10.20;99.90;;;;;;5031830;28;20069;-48
2023/04/19 10:03:34;;;;;;;17.63;9.70;;;10.20;99.90;;;;;;5041600;28;20069;-49
2023/04/19 10:06:02;;;;;;;15.23;8.43;;;10.20;99.90;;;;;;5033514;28;20045;-48
2023/04/19 10:08:40;;;;;;;16.50;8.95;;;10.20;99.90;;;;;;5030542;28;20054;-48
2023/04/19 10:11:07;;;;;;;19.08;9.82;;;10.10;99.90;;;;;;5037783;28;20049;-48
2023/04/19 10:13:33;;;;;;;15.48;9.13;;;10.10;99.90;;;;;;5030540;28;20077;-50
2023/04/19 10:16:00;;;;;;;19.55;11.00;;;10.00;99.90;;;;;;5030924;28;20041;-48
2023/04/19 10:18:45;;;;;;;17.60;10.23;;;9.90;99.90;;;;;;5037605;28;20505;-49
2023/04/19 10:21:12;;;;;;;;;;;9.90;99.90;;;;;;5039143;28;20465;-48
2023/04/19 10:23:39;;;;;;;22.83;11.40;;;9.90;99.90;;;;;;5031277;28;19932;-48
2023/04/19 10:26:06;;;;;;;24.02;11.70;;;9.80;99.90;;;;;;5031256;28;20053;-49
2023/04/19 10:28:35;;;;;;;22.65;12.15;;;9.70;99.90;;;;;;5039919;28;20051;-48
2023/04/19 10:31:03;;;;;;;23.80;12.80;;;9.60;99.90;;;;;;5031345;28;20411;-48
2023/04/19 10:33:35;;;;;;;23.02;12.55;;;9.60;99.90;;;;;;5029156;28;20402;-49
2023/04/19 10:36:02;;;;;;;25.38;13.10;;;9.60;99.90;;;;;;5031229;28;20112;-49
2023/04/19 10:38:48;;;;;;;;;;;9.60;99.90;;;;;;5030732;28;20449;-48
2023/04/19 10:41:16;;;;;;;26.13;12.45;;;9.60;99.90;;;;;;5031419;28;19925;-48
2023/04/19 10:43:47;;;;;;;23.25;12.82;;;9.60;99.90;;;;;;5031012;28;20045;-48
2023/04/19 10:46:34;;;;;;;21.90;11.98;;;9.60;99.90;;;;;;5031648;28;20057;-48
2023/04/19 10:49:03;;;;;;;20.02;12.05;;;9.60;99.90;;;;;;5035452;28;20048;-48
2023/04/19 10:51:38;;;;;;;21.90;12.77;;;9.50;99.90;;;;;;5031399;28;20422;-50
2023/04/19 10:54:05;;;;;;;25.15;12.98;;;9.50;99.90;;;;;;5030884;28;20087;-49
2023/04/19 10:56:34;;;;;;;21.85;11.60;;;9.50;99.90;;;;;;5030826;28;20128;-48
2023/04/19 10:59:01;;;;;;;20.77;11.25;;;9.40;99.90;;;;;;5040588;28;20033;-49
2023/04/19 11:01:49;;;;;;;20.95;11.45;;;9.30;99.90;;;;;;5043650;28;20033;-49
2023/04/19 11:04:22;;;;;;;20.83;11.57;;;9.40;99.90;;;;;;5030744;28;20525;-48
2023/04/19 11:06:52;;;;;;;25.48;12.50;;;9.40;99.90;;;;;;5030027;28;20045;-48
2023/04/19 11:09:26;;;;;;;26.00;14.15;;;9.40;99.90;;;;;;5033725;28;20042;-48
2023/04/19 11:11:58;;;;;;;27.92;15.20;;;9.40;99.90;;;;;;5030046;28;20357;-48
2023/04/19 11:14:26;;;;;;;31.95;15.50;;;9.40;99.90;;;;;;5029808;28;20077;-49
2023/04/19 11:16:52;;;;;;;25.25;13.85;;;9.60;99.90;;;;;;5030736;28;20041;-48
2023/04/19 11:19:19;;;;;;;28.83;14.25;;;9.70;99.90;;;;;;5031676;28;20400;-50
2023/04/19 11:21:47;;;;;;;28.15;15.20;;;9.70;99.90;;;;;;5029815;28;20091;-49
2023/04/19 11:24:17;;;;;;;25.52;14.23;;;9.70;99.90;;;;;;5030442;28;20140;-49
2023/04/19 11:26:45;;;;;;;28.42;15.02;;;9.80;99.90;;;;;;5036090;28;20037;-48
2023/04/19 11:29:12;;;;;;;24.95;15.02;;;9.80;99.90;;;;;;5030890;28;20429;-47
2023/04/19 11:31:39;;;;;;;;;;;9.90;99.90;;;;;;5031009;28;20041;-48
2023/04/19 11:34:06;;;;;;;27.38;15.63;;;10.00;99.90;;;;;;5030553;28;19921;-46
2023/04/19 11:36:35;;;;;;;28.77;15.55;;;9.80;99.90;;;;;;5044874;28;20038;-48
2023/04/19 11:39:05;;;;;;;30.60;15.52;;;9.70;99.90;;;;;;5048126;28;20485;-49
2023/04/19 11:41:38;;;;;;;29.95;15.48;;;9.80;99.90;;;;;;5050814;28;20095;-49
2023/04/19 11:44:21;;;;;;;35.22;16.65;;;9.80;99.90;;;;;;5034456;28;20128;-48
2023/04/19 11:47:03;;;;;;;29.63;15.82;;;9.90;99.90;;;;;;5030090;28;20444;-48
2023/04/19 11:49:32;;;;;;;31.67;15.65;;;9.90;99.90;;;;;;5031089;28;20049;-48
2023/04/19 11:52:01;;;;;;;30.90;15.75;;;9.90;99.90;;;;;;5041591;28;20095;-46
2023/04/19 11:54:32;;;;;;;31.48;16.33;;;10.00;99.90;;;;;;5045386;28;20037;-49
2023/04/19 11:57:04;;;;;;;30.50;16.15;;;10.00;99.90;;;;;;5054152;28;20082;-47
2023/04/19 11:59:32;;;;;;;28.40;14.82;;;10.10;99.90;;;;;;5042107;28;20042;-46
2023/04/19 12:02:08;;;;;;;27.05;15.40;;;10.10;99.90;;;;;;5033938;28;20040;-48
2023/04/19 12:04:36;;;;;;;27.60;14.07;;;10.20;99.90;;;;;;5033206;28;20351;-49
2023/04/19 12:07:05;;;;;;;27.05;15.20;;;10.30;99.90;;;;;;5042285;28;20045;-47
2023/04/19 12:09:35;;;;;;;27.45;13.70;;;10.30;99.90;;;;;;5036795;28;20068;-46
2023/04/19 12:12:02;;;;;;;25.65;14.10;;;10.40;99.90;;;;;;5033979;28;20490;-48
2023/04/19 12:14:30;;;;;;;24.73;14.60;;;10.60;99.90;;;;;;5033553;28;20075;-47
2023/04/19 12:17:08;;;;;;;26.15;14.48;;;10.70;99.90;;;;;;5033156;28;20060;-46
2023/04/19 12:19:40;;;;;;;24.08;13.55;;;10.80;99.90;;;;;;5033308;28;20069;-49
2023/04/19 12:22:09;;;;;;;22.73;14.45;;;10.90;99.90;;;;;;5048518;28;20119;-46
2023/04/19 12:24:37;;;;;;;25.38;13.88;;;10.80;99.90;;;;;;5033016;28;20099;-48
2023/04/19 12:27:04;;;;;;;25.35;13.00;;;10.70;99.90;;;;;;5033474;28;20041;-46
2023/04/19 12:29:32;;;;;;;24.95;12.70;;;10.60;99.90;;;;;;5032821;28;20077;-47
2023/04/19 12:32:00;;;;;;;;;;;10.50;99.90;;;;;;5033797;28;20053;-46
2023/04/19 12:34:27;;;;;;;20.55;11.63;;;10.50;99.90;;;;;;5032653;28;19927;-46
2023/04/19 12:36:54;;;;;;;20.15;12.40;;;10.50;99.90;;;;;;5033177;28;20053;-46
2023/04/19 12:39:21;;;;;;;22.20;12.00;;;10.40;99.90;;;;;;5032143;28;20074;-48
2023/04/19 12:41:48;;;;;;;24.75;12.45;;;10.50;99.90;;;;;;5033214;28;20069;-50
2023/04/19 12:44:15;;;;;;;24.05;12.32;;;10.40;99.90;;;;;;5032714;28;20045;-48
2023/04/19 12:46:41;;;;;;;21.67;11.02;;;10.60;99.90;;;;;;5032873;28;20438;-48
2023/04/19 12:49:08;;;;;;;19.35;11.57;;;10.70;99.90;;;;;;5036092;28;20077;-48
2023/04/19 12:51:35;;;;;;;21.98;11.50;;;10.90;99.90;;;;;;5032653;28;20556;-51
2023/04/19 12:54:01;;;;;;;20.55;11.43;;;11.00;99.90;;;;;;5033522;28;20120;-48
2023/04/19 12:56:28;;;;;;;19.70;11.18;;;11.10;99.90;;;;;;5058681;28;20490;-48